Time;durP1;ratioP1;P1;durP2;ratioP2;P2;SDS_P1;SDS_P2;PMS_P1;PMS_P2;Temp;Humidity;BMP_temperature;BMP_pressure;BME280_temperature;BME280_humidity;BME280_pressure;Samples;Min_cycle;Max_cycle;Signal;HPM_P1;HPM_P2
2023/06/01 00:00:09;;;;;;;2.90;1.05;;;;;;;;;;5051042;28;20389;-66
2023/06/01 00:02:36;;;;;;;3.30;0.98;;;;;;;;;;5050351;28;20037;-67
2023/06/01 00:05:02;;;;;;;5.85;1.10;;;;;;;;;;5050713;28;20060;-68
2023/06/01 00:07:29;;;;;;;3.78;0.98;;;;;;;;;;5048658;28;20040;-67
2023/06/01 00:09:56;;;;;;;2.70;0.88;;;;;;;;;;5050266;28;20717;-66
2023/06/01 00:12:23;;;;;;;3.92;1.08;;;;;;;;;;5063520;28;20037;-67
2023/06/01 00:14:49;;;;;;;5.88;1.00;;;;;;;;;;5065622;28;20037;-66
2023/06/01 00:17:16;;;;;;;4.55;1.27;;;;;;;;;;5063408;28;20552;-66
2023/06/01 00:19:45;;;;;;;3.45;1.10;;;;;;;;;;5048365;28;20041;-65
2023/06/01 00:22:12;;;;;;;4.80;1.00;;;;;;;;;;5038891;28;20068;-64
2023/06/01 00:24:39;;;;;;;3.58;1.00;;;;;;;;;;5065264;28;20055;-66
2023/06/01 00:27:06;;;;;;;4.35;1.25;;;;;;;;;;5048998;28;20076;-66
2023/06/01 00:29:33;;;;;;;4.38;0.90;;;;;;;;;;5030040;28;20045;-65
2023/06/01 00:32:00;;;;;;;3.92;1.45;;;;;;;;;;5030762;28;20037;-66
2023/06/01 00:34:26;;;;;;;3.42;1.15;;;;;;;;;;5031359;28;20037;-65
2023/06/01 00:36:53;;;;;;;6.22;1.52;;;;;;;;;;5031000;28;20048;-65
2023/06/01 00:39:19;;;;;;;3.70;1.20;;;;;;;;;;5028972;28;20048;-64
2023/06/01 00:41:46;;;;;;;4.63;1.20;;;;;;;;;;5032192;28;20133;-63
2023/06/01 00:44:13;;;;;;;5.80;1.20;;;;;;;;;;5031469;28;20763;-63
2023/06/01 00:46:40;;;;;;;4.03;1.10;;;;;;;;;;5028093;28;20168;-65
2023/06/01 00:49:07;;;;;;;11.48;1.40;;;;;;;;;;5030946;28;20083;-65
2023/06/01 00:51:35;;;;;;;10.27;1.58;;;;;;;;;;5044133;28;20120;-66
2023/06/01 00:54:02;;;;;;;4.68;1.30;;;;;;;;;;5030689;28;20048;-65
2023/06/01 00:56:28;;;;;;;4.05;1.23;;;;;;;;;;5017249;28;20064;-64
2023/06/01 00:58:55;;;;;;;4.60;1.42;;;;;;;;;;5016884;28;20180;-62
2023/06/01 01:01:22;;;;;;;9.30;1.45;;;;;;;;;;5029610;28;20111;-63
2023/06/01 01:03:57;;;;;;;3.75;1.10;;;;;;;;;;5017101;28;20453;-65
2023/06/01 01:06:36;;;;;;;4.30;1.27;;;;;;;;;;5017307;28;20037;-63
2023/06/01 01:09:12;;;;;;;3.90;1.17;;;;;;;;;;5016492;28;20223;-64
2023/06/01 01:11:39;;;;;;;6.65;1.52;;;;;;;;;;5018107;28;20176;-63
2023/06/01 01:14:15;;;;;;;11.80;1.88;;;;;;;;;;5014680;28;20810;-63
2023/06/01 01:16:45;;;;;;;4.75;1.58;;;;;;;;;;5015323;28;20046;-64
2023/06/01 01:19:50;;;;;;;6.63;1.58;;;;;;;;;;5015268;28;20280;-64
2023/06/01 01:22:35;;;;;;;6.22;1.67;;;;;;;;;;4998982;28;20145;-64
2023/06/01 01:25:21;;;;;;;7.07;1.30;;;;;;;;;;4997285;28;20046;-65
2023/06/01 01:27:48;;;;;;;4.07;1.67;;;;;;;;;;5024655;28;20046;-62
2023/06/01 01:30:16;;;;;;;6.15;1.70;;;;;;;;;;5036149;28;20544;-64
2023/06/01 01:32:43;;;;;;;4.88;1.60;;;;;;;;;;5036580;28;21657;-65
2023/06/01 01:35:10;;;;;;;4.72;1.38;;;;;;;;;;5037999;28;20095;-63
2023/06/01 01:37:36;;;;;;;6.75;1.52;;;;;;;;;;5033704;28;20069;-63
2023/06/01 01:40:04;;;;;;;4.55;1.30;;;;;;;;;;5036683;28;20034;-64
2023/06/01 01:42:30;;;;;;;7.68;1.60;;;;;;;;;;5035864;28;20150;-65
2023/06/01 01:44:57;;;;;;;7.10;1.35;;;;;;;;;;5050330;28;20051;-64
2023/06/01 01:47:28;;;;;;;5.75;1.52;;;;;;;;;;5034525;28;20037;-63
2023/06/01 01:49:59;;;;;;;5.68;1.30;;;;;;;;;;5037446;28;20037;-64
2023/06/01 01:52:27;;;;;;;5.63;1.10;;;;;;;;;;5039475;28;20076;-65
2023/06/01 01:54:54;;;;;;;5.60;1.15;;;;;;;;;;5037088;28;20170;-64
2023/06/01 01:57:23;;;;;;;4.57;1.27;;;;;;;;;;5037499;28;20033;-66
2023/06/01 01:59:50;;;;;;;4.53;1.38;;;;;;;;;;5039348;28;20060;-65
2023/06/01 02:02:16;;;;;;;5.40;1.30;;;;;;;;;;5039136;28;20051;-64
2023/06/01 02:04:45;;;;;;;4.20;1.23;;;;;;;;;;5029560;28;20108;-63
2023/06/01 02:07:12;;;;;;;5.50;1.33;;;;;;;;;;5038450;28;20455;-66
2023/06/01 02:09:40;;;;;;;5.57;1.70;;;;;;;;;;5042081;28;20052;-63
2023/06/01 02:12:06;;;;;;;5.13;1.15;;;;;;;;;;5039769;28;20063;-66
2023/06/01 02:14:33;;;;;;;3.38;1.17;;;;;;;;;;5043721;28;20033;-67
2023/06/01 02:17:00;;;;;;;5.32;1.38;;;;;;;;;;5045687;28;20045;-64
2023/06/01 02:19:27;;;;;;;4.65;1.27;;;;;;;;;;5039238;28;22093;-65
2023/06/01 02:21:54;;;;;;;5.30;1.33;;;;;;;;;;5037127;28;20217;-66
2023/06/01 02:24:21;;;;;;;3.35;1.02;;;;;;;;;;5039134;28;20044;-64
2023/06/01 02:26:51;;;;;;;3.65;1.00;;;;;;;;;;5045028;28;20037;-63
2023/06/01 02:29:21;;;;;;;3.72;0.95;;;;;;;;;;5041826;28;20049;-63
2023/06/01 02:31:49;;;;;;;5.75;1.25;;;;;;;;;;5039379;28;20033;-64
2023/06/01 02:34:15;;;;;;;9.50;1.50;;;;;;;;;;5041211;28;20048;-64
2023/06/01 02:36:42;;;;;;;6.07;1.25;;;;;;;;;;5035414;28;20041;-63
2023/06/01 02:39:09;;;;;;;5.15;1.25;;;;;;;;;;5036366;28;20883;-63
2023/06/01 02:41:36;;;;;;;7.20;1.48;;;;;;;;;;5035065;28;20041;-64
2023/06/01 02:44:02;;;;;;;4.05;1.35;;;;;;;;;;5034659;28;20604;-64
2023/06/01 02:46:29;;;;;;;4.72;1.08;;;;;;;;;;5034515;28;20099;-65
2023/06/01 02:48:56;;;;;;;6.05;1.38;;;;;;;;;;5035722;28;20067;-64
2023/06/01 02:51:22;;;;;;;4.18;1.05;;;;;;;;;;5042062;28;20129;-64
2023/06/01 02:53:49;;;;;;;5.45;1.42;;;;;;;;;;5039387;28;20052;-64
2023/06/01 02:56:15;;;;;;;9.00;1.38;;;;;;;;;;5040828;28;20068;-65
2023/06/01 02:58:42;;;;;;;6.82;1.45;;;;;;;;;;5053766;28;20041;-61
2023/06/01 03:01:12;;;;;;;4.05;1.33;;;;;;;;;;5047662;28;20044;-62
2023/06/01 03:03:40;;;;;;;4.78;1.73;;;;;;;;;;5040722;28;21557;-66
2023/06/01 03:06:08;;;;;;;4.10;1.35;;;;;;;;;;5042772;28;20040;-65
2023/06/01 03:08:35;;;;;;;10.57;1.50;;;;;;;;;;5044585;28;20044;-64
2023/06/01 03:11:01;;;;;;;3.42;1.20;;;;;;;;;;5040408;28;20069;-63
2023/06/01 03:13:28;;;;;;;5.63;1.65;;;;;;;;;;5040408;28;20602;-66
2023/06/01 03:15:55;;;;;;;3.90;1.42;;;;;;;;;;5041534;28;20038;-64
2023/06/01 03:18:21;;;;;;;6.38;1.50;;;;;;;;;;5034428;28;20048;-65
2023/06/01 03:20:48;;;;;;;7.32;1.63;;;;;;;;;;5035316;28;20044;-64
2023/06/01 03:23:15;;;;;;;5.90;1.02;;;;;;;;;;5036559;28;20046;-65
2023/06/01 03:25:42;;;;;;;6.88;1.40;;;;;;;;;;5037178;28;20183;-63
2023/06/01 03:28:08;;;;;;;9.45;1.38;;;;;;;;;;5034689;28;20041;-64
2023/06/01 03:30:38;;;;;;;7.40;1.63;;;;;;;;;;5051612;28;20041;-63
2023/06/01 03:33:04;;;;;;;12.23;1.75;;;;;;;;;;5034417;28;20144;-64
2023/06/01 03:35:31;;;;;;;9.25;1.83;;;;;;;;;;5033406;28;20532;-64
2023/06/01 03:37:57;;;;;;;8.80;1.73;;;;;;;;;;5035819;28;20068;-63
2023/06/01 03:40:24;;;;;;;4.97;1.45;;;;;;;;;;5037322;28;20552;-62
2023/06/01 03:42:51;;;;;;;5.72;1.42;;;;;;;;;;5037573;28;20037;-63
2023/06/01 03:45:18;;;;;;;8.55;1.77;;;;;;;;;;5045739;28;20079;-63
2023/06/01 03:47:44;;;;;;;11.07;2.10;;;;;;;;;;5038312;28;20048;-63
2023/06/01 03:50:11;;;;;;;7.47;1.90;;;;;;;;;;5033125;28;20647;-64
2023/06/01 03:52:38;;;;;;;14.90;1.95;;;;;;;;;;5032598;28;20872;-62
2023/06/01 03:55:10;;;;;;;9.23;2.08;;;;;;;;;;5035378;28;20049;-67
2023/06/01 03:57:37;;;;;;;13.00;2.33;;;;;;;;;;5054369;28;20068;-69
2023/06/01 04:00:20;;;;;;;13.07;2.72;;;;;;;;;;5056804;28;20072;-68
2023/06/01 04:02:54;;;;;;;14.82;4.20;;;;;;;;;;5057011;28;20033;-69
2023/06/01 04:05:22;;;;;;;9.38;4.18;;;;;;;;;;5044423;28;20429;-69
2023/06/01 04:07:50;;;;;;;11.98;4.65;;;;;;;;;;5031915;28;20041;-68
2023/06/01 04:10:17;;;;;;;13.63;5.55;;;;;;;;;;5032780;28;20582;-68
2023/06/01 04:12:44;;;;;;;14.13;6.45;;;;;;;;;;5069865;28;20059;-67
2023/06/01 04:15:12;;;;;;;17.58;7.13;;;;;;;;;;5057309;28;20117;-68
2023/06/01 04:17:42;;;;;;;12.27;6.30;;;;;;;;;;5057816;28;20024;-68
2023/06/01 04:20:14;;;;;;;16.10;7.75;;;;;;;;;;5054371;28;20037;-67
2023/06/01 04:22:41;;;;;;;13.18;6.07;;;;;;;;;;5052501;28;20029;-68
2023/06/01 04:25:08;;;;;;;15.07;6.70;;;;;;;;;;5046384;28;20037;-68
2023/06/01 04:27:38;;;;;;;15.82;7.20;;;;;;;;;;5042071;28;20117;-68
2023/06/01 04:30:08;;;;;;;13.07;6.10;;;;;;;;;;5040156;28;20049;-67
2023/06/01 04:32:37;;;;;;;16.15;6.47;;;;;;;;;;5042056;28;20482;-67
2023/06/01 04:35:08;;;;;;;14.88;7.00;;;;;;;;;;5045895;28;20045;-68
2023/06/01 04:37:35;;;;;;;17.05;6.63;;;;;;;;;;5043707;28;20046;-67
2023/06/01 04:40:09;;;;;;;10.88;6.50;;;;;;;;;;5045965;28;20041;-66
2023/06/01 04:42:41;;;;;;;14.82;6.13;;;;;;;;;;5044661;28;20045;-67
2023/06/01 04:45:09;;;;;;;11.63;6.55;;;;;;;;;;5044043;28;20053;-68
2023/06/01 04:47:37;;;;;;;11.40;6.63;;;;;;;;;;5044473;28;20103;-67
2023/06/01 04:50:10;;;;;;;11.98;5.75;;;;;;;;;;5053781;28;20040;-67
2023/06/01 04:52:36;;;;;;;;;;;;;;;;;;5056389;28;20041;-66
2023/06/01 04:55:06;;;;;;;13.00;5.97;;;;;;;;;;5054860;28;19923;-67
2023/06/01 04:57:35;;;;;;;13.13;5.90;;;;;;;;;;5057586;28;20083;-67
2023/06/01 05:00:04;;;;;;;16.48;6.07;;;;;;;;;;5055540;28;20039;-69
2023/06/01 05:02:30;;;;;;;16.42;6.00;;;;;;;;;;5055901;28;20041;-68
2023/06/01 05:04:57;;;;;;;13.43;6.10;;;;;;;;;;5051703;28;20045;-68
2023/06/01 05:07:24;;;;;;;10.57;5.28;;;;;;;;;;5053897;28;20029;-67
2023/06/01 05:09:51;;;;;;;13.65;5.97;;;;;;;;;;5058169;28;20040;-67
2023/06/01 05:12:17;;;;;;;8.90;5.75;;;;;;;;;;5057201;28;20044;-67
2023/06/01 05:14:44;;;;;;;7.47;4.80;;;;;;;;;;5052510;28;20029;-67
2023/06/01 05:17:11;;;;;;;11.88;6.15;;;;;;;;;;5048312;28;20037;-66
2023/06/01 05:19:37;;;;;;;11.95;6.38;;;;;;;;;;5048514;28;20044;-67
2023/06/01 05:22:04;;;;;;;9.75;5.88;;;;;;;;;;5046115;28;20036;-66
2023/06/01 05:24:31;;;;;;;13.73;6.55;;;;;;;;;;5044396;28;20087;-66
2023/06/01 05:26:57;;;;;;;11.00;6.68;;;;;;;;;;5045570;28;20059;-67
2023/06/01 05:29:24;;;;;;;11.48;6.22;;;;;;;;;;5040619;28;20062;-67
2023/06/01 05:31:51;;;;;;;9.35;5.78;;;;;;;;;;5037145;28;20414;-68
2023/06/01 05:34:17;;;;;;;9.55;5.35;;;;;;;;;;5037409;28;20037;-68
2023/06/01 05:36:44;;;;;;;12.23;6.45;;;;;;;;;;5015593;28;20152;-67
2023/06/01 05:39:10;;;;;;;12.10;6.10;;;;;;;;;;5034504;28;20576;-66
2023/06/01 05:41:37;;;;;;;9.85;5.95;;;;;;;;;;5017215;28;20038;-66
2023/06/01 05:44:04;;;;;;;14.10;6.93;;;;;;;;;;5017623;28;20057;-66
2023/06/01 05:46:31;;;;;;;12.50;6.90;;;;;;;;;;5014098;28;20035;-67
2023/06/01 05:48:57;;;;;;;14.45;6.82;;;;;;;;;;5016427;28;20041;-67
2023/06/01 05:51:24;;;;;;;11.43;6.63;;;;;;;;;;5018761;28;20037;-65
2023/06/01 05:53:51;;;;;;;10.65;6.38;;;;;;;;;;5018952;28;20042;-68
2023/06/01 05:56:17;;;;;;;10.65;6.40;;;;;;;;;;5018872;28;21003;-67
2023/06/01 05:58:46;;;;;;;13.73;7.20;;;;;;;;;;5018543;28;20042;-67
2023/06/01 06:01:13;;;;;;;12.30;6.57;;;;;;;;;;5018430;28;20534;-65
2023/06/01 06:03:40;;;;;;;13.13;7.60;;;;;;;;;;5017138;28;20057;-67
2023/06/01 06:06:06;;;;;;;13.15;7.05;;;;;;;;;;5017424;28;20046;-66
2023/06/01 06:08:33;;;;;;;11.93;6.10;;;;;;;;;;5017565;28;20042;-68
2023/06/01 06:11:00;;;;;;;11.80;7.35;;;;;;;;;;5016995;28;20152;-67
2023/06/01 06:13:26;;;;;;;10.77;6.60;;;;;;;;;;5017493;28;20045;-66
2023/06/01 06:15:54;;;;;;;12.85;6.57;;;;;;;;;;5031830;28;20038;-67
2023/06/01 06:18:21;;;;;;;10.65;6.85;;;;;;;;;;5015866;28;20049;-67
2023/06/01 06:20:47;;;;;;;11.10;7.00;;;;;;;;;;5017018;28;20038;-67
2023/06/01 06:23:14;;;;;;;14.77;6.68;;;;;;;;;;5017788;28;20116;-69
2023/06/01 06:25:41;;;;;;;13.75;7.05;;;;;;;;;;5015387;28;20498;-67
2023/06/01 06:28:08;;;;;;;13.13;6.57;;;;;;;;;;5016893;28;20068;-67
2023/06/01 06:30:35;;;;;;;12.77;6.47;;;;;;;;;;5015224;28;20402;-68
2023/06/01 06:33:01;;;;;;;13.57;4.80;;;;;;;;;;5017513;28;20099;-67
2023/06/01 06:35:28;;;;;;;11.30;5.53;;;;;;;;;;5015142;28;20167;-67
2023/06/01 06:37:54;;;;;;;13.45;6.82;;;;;;;;;;5013175;28;20099;-68
2023/06/01 06:40:21;;;;;;;11.20;6.38;;;;;;;;;;4994091;28;20042;-66
2023/06/01 06:42:50;;;;;;;11.82;6.80;;;;;;;;;;4994217;28;20061;-66
2023/06/01 06:45:17;;;;;;;13.65;7.25;;;;;;;;;;4993585;28;20876;-67
2023/06/01 06:47:45;;;;;;;11.73;6.40;;;;;;;;;;4991981;28;20041;-67
2023/06/01 06:50:12;;;;;;;11.65;6.03;;;;;;;;;;4993217;28;20438;-68
2023/06/01 06:52:39;;;;;;;9.45;5.50;;;;;;;;;;4992543;28;20053;-66
2023/06/01 06:55:06;;;;;;;12.55;7.43;;;;;;;;;;4992845;28;20034;-68
2023/06/01 06:57:35;;;;;;;13.43;6.93;;;;;;;;;;4992839;28;20478;-66
2023/06/01 07:00:04;;;;;;;13.27;6.65;;;;;;;;;;4995366;28;20125;-68
2023/06/01 07:02:31;;;;;;;12.07;6.43;;;;;;;;;;4995642;28;20050;-67
2023/06/01 07:04:58;;;;;;;12.98;6.65;;;;;;;;;;4995936;28;20046;-66
2023/06/01 07:07:25;;;;;;;11.38;6.35;;;;;;;;;;5001968;28;20136;-68
2023/06/01 07:09:52;;;;;;;11.77;6.75;;;;;;;;;;4995811;28;20044;-67
2023/06/01 07:12:19;;;;;;;12.20;6.18;;;;;;;;;;5012972;28;20109;-72
2023/06/01 07:14:46;;;;;;;11.57;5.57;;;;;;;;;;5015565;28;20057;-68
2023/06/01 07:17:12;;;;;;;12.90;5.95;;;;;;;;;;5015396;28;20079;-68
2023/06/01 07:19:39;;;;;;;9.60;5.35;;;;;;;;;;5013687;28;20846;-66
2023/06/01 07:22:06;;;;;;;8.15;4.72;;;;;;;;;;5030991;28;20042;-68
2023/06/01 07:24:33;;;;;;;8.02;4.07;;;;;;;;;;5012354;28;20037;-65
2023/06/01 07:26:59;;;;;;;10.20;4.80;;;;;;;;;;5012243;28;20912;-66
2023/06/01 07:29:26;;;;;;;8.70;4.45;;;;;;;;;;5013394;28;20052;-67
2023/06/01 07:31:53;;;;;;;8.55;4.57;;;;;;;;;;5014566;28;20042;-67
2023/06/01 07:34:20;;;;;;;9.93;4.53;;;;;;;;;;5013551;28;20100;-66
2023/06/01 07:36:47;;;;;;;7.00;3.20;;;;;;;;;;5014718;28;20048;-67
2023/06/01 07:39:14;;;;;;;8.65;3.72;;;;;;;;;;5015720;28;20056;-66
2023/06/01 07:41:42;;;;;;;8.18;4.13;;;;;;;;;;5013375;28;20041;-67
2023/06/01 07:44:09;;;;;;;9.10;3.55;;;;;;;;;;5014520;28;20407;-66
2023/06/01 07:46:35;;;;;;;6.32;3.28;;;;;;;;;;5013651;28;20103;-66
2023/06/01 07:49:03;;;;;;;8.63;4.03;;;;;;;;;;5016056;28;20667;-66
2023/06/01 07:51:31;;;;;;;9.15;4.30;;;;;;;;;;5014759;28;20049;-66
2023/06/01 07:53:59;;;;;;;9.35;4.07;;;;;;;;;;5014598;28;20124;-65
2023/06/01 07:56:27;;;;;;;9.90;4.55;;;;;;;;;;5014255;28;20049;-67
2023/06/01 07:58:54;;;;;;;8.65;4.20;;;;;;;;;;5011514;28;20041;-67
2023/06/01 08:01:20;;;;;;;6.80;4.00;;;;;;;;;;5012425;28;20042;-68
2023/06/01 08:03:47;;;;;;;9.27;4.35;;;;;;;;;;5029169;28;20067;-67
2023/06/01 08:06:15;;;;;;;10.60;4.18;;;;;;;;;;5014323;28;20065;-66
2023/06/01 08:08:42;;;;;;;7.63;3.88;;;;;;;;;;5016971;28;20041;-67
2023/06/01 08:11:09;;;;;;;6.57;3.63;;;;;;;;;;5020556;28;20042;-66
2023/06/01 08:13:56;;;;;;;15.13;4.03;;;;;;;;;;5075430;28;20046;-65
2023/06/01 08:16:22;;;;;;;10.55;4.35;;;;;;;;;;5073876;28;20077;-66
2023/06/01 08:18:50;;;;;;;6.95;4.13;;;;;;;;;;5074983;28;20033;-66
2023/06/01 08:21:17;;;;;;;8.82;4.65;;;;;;;;;;5072885;28;20092;-67
2023/06/01 08:23:44;;;;;;;7.70;4.53;;;;;;;;;;5075090;28;20096;-67
2023/06/01 08:26:11;;;;;;;10.25;4.38;;;;;;;;;;5075316;28;20104;-68
2023/06/01 08:28:38;;;;;;;9.10;4.05;;;;;;;;;;5075159;28;20450;-67
2023/06/01 08:31:05;;;;;;;8.98;4.65;;;;;;;;;;5073115;28;20049;-66
2023/06/01 08:33:31;;;;;;;7.28;3.90;;;;;;;;;;5075371;27;20151;-66
2023/06/01 08:35:58;;;;;;;9.13;4.50;;;;;;;;;;5073906;28;20039;-66
2023/06/01 08:38:29;;;;;;;11.43;4.90;;;;;;;;;;5047386;28;20639;-66
2023/06/01 08:40:57;;;;;;;12.65;4.00;;;;;;;;;;5067289;28;20051;-67
2023/06/01 08:43:28;;;;;;;8.32;4.43;;;;;;;;;;5071768;28;20151;-66
2023/06/01 08:45:56;;;;;;;5.93;3.40;;;;;;;;;;5074762;28;20103;-67
2023/06/01 08:48:24;;;;;;;7.90;4.22;;;;;;;;;;5075479;28;20050;-67
2023/06/01 08:50:52;;;;;;;11.10;5.03;;;;;;;;;;5061145;28;20034;-67
2023/06/01 08:53:21;;;;;;;9.32;4.43;;;;;;;;;;5028560;28;20037;-66
2023/06/01 08:55:51;;;;;;;9.80;4.75;;;;;;;;;;5024140;28;20103;-68
2023/06/01 08:58:18;;;;;;;9.13;4.63;;;;;;;;;;5033811;28;20725;-67
2023/06/01 09:00:48;;;;;;;7.70;4.18;;;;;;;;;;5016949;28;20091;-67
2023/06/01 09:03:14;;;;;;;10.75;4.57;;;;;;;;;;5032188;28;20487;-68
2023/06/01 09:05:41;;;;;;;7.50;4.40;;;;;;;;;;5014549;28;20149;-67
2023/06/01 09:08:08;;;;;;;8.35;4.82;;;;;;;;;;5029406;28;20041;-67
2023/06/01 09:10:36;;;;;;;10.55;4.78;;;;;;;;;;5009238;28;20095;-68
2023/06/01 09:13:03;;;;;;;9.73;5.18;;;;;;;;;;5029622;28;20057;-67
2023/06/01 09:15:29;;;;;;;8.20;5.05;;;;;;;;;;5015680;28;21281;-66
2023/06/01 09:18:07;;;;;;;9.15;5.53;;;;;;;;;;5017599;28;20037;-67
2023/06/01 09:20:34;;;;;;;11.30;4.88;;;;;;;;;;5015624;28;20060;-66
2023/06/01 09:23:01;;;;;;;11.32;5.47;;;;;;;;;;5017802;28;20036;-66
2023/06/01 09:25:31;;;;;;;9.50;4.95;;;;;;;;;;5015486;28;20124;-67
2023/06/01 09:28:00;;;;;;;10.50;6.07;;;;;;;;;;5017464;28;20045;-66
2023/06/01 09:30:38;;;;;;;10.57;5.85;;;;;;;;;;5031622;28;20136;-67
2023/06/01 09:33:13;;;;;;;7.88;5.53;;;;;;;;;;5016745;28;20452;-68
2023/06/01 09:35:41;;;;;;;11.93;6.40;;;;;;;;;;5014994;28;20072;-67
2023/06/01 09:38:08;;;;;;;10.32;5.72;;;;;;;;;;5025014;28;20049;-66
2023/06/01 09:40:35;;;;;;;8.95;5.90;;;;;;;;;;5019272;28;20050;-67
2023/06/01 09:43:02;;;;;;;8.40;5.50;;;;;;;;;;5027875;28;20044;-68
2023/06/01 09:45:30;;;;;;;8.43;5.18;;;;;;;;;;5035120;28;20045;-68
2023/06/01 09:48:16;;;;;;;9.23;5.70;;;;;;;;;;5037393;28;20049;-66
2023/06/01 09:50:43;;;;;;;8.65;5.20;;;;;;;;;;5033314;28;20052;-66
2023/06/01 09:53:10;;;;;;;10.05;5.72;;;;;;;;;;5030216;28;20052;-65
2023/06/01 09:55:37;;;;;;;10.63;5.35;;;;;;;;;;5024849;28;20042;-66
2023/06/01 09:58:22;;;;;;;10.05;5.32;;;;;;;;;;5020813;28;20052;-67
2023/06/01 10:00:50;;;;;;;7.25;4.70;;;;;;;;;;5019883;28;20117;-69
2023/06/01 10:03:17;;;;;;;9.52;5.93;;;;;;;;;;5021568;28;20037;-66
2023/06/01 10:05:45;;;;;;;8.82;5.35;;;;;;;;;;5045705;28;20054;-66
2023/06/01 10:08:13;;;;;;;10.90;5.53;;;;;;;;;;5033925;28;20118;-67
2023/06/01 10:10:40;;;;;;;9.75;4.45;;;;;;;;;;5026155;28;20030;-67
2023/06/01 10:13:06;;;;;;;10.57;5.32;;;;;;;;;;5022918;28;20038;-66
2023/06/01 10:15:33;;;;;;;8.60;5.15;;;;;;;;;;5020198;28;20056;-67
2023/06/01 10:18:02;;;;;;;9.10;5.32;;;;;;;;;;5020978;28;20482;-66
2023/06/01 10:20:28;;;;;;;10.77;5.97;;;;;;;;;;5020987;28;20064;-67
2023/06/01 10:22:55;;;;;;;9.23;5.22;;;;;;;;;;5021398;28;20129;-68
2023/06/01 10:25:23;;;;;;;8.88;4.85;;;;;;;;;;5023848;28;20049;-70
2023/06/01 10:27:55;;;;;;;9.30;5.63;;;;;;;;;;5018061;28;20068;-67
2023/06/01 10:30:21;;;;;;;9.98;5.20;;;;;;;;;;5016853;28;20034;-67
2023/06/01 10:32:48;;;;;;;9.32;5.32;;;;;;;;;;5017339;28;20037;-66
2023/06/01 10:35:41;;;;;;;8.07;3.42;;;;;;;;;;5015161;28;20049;-65
2023/06/01 10:38:12;;;;;;;10.48;5.05;;;;;;;;;;5002645;28;20056;-65
2023/06/01 10:40:40;;;;;;;9.25;5.20;;;;;;;;;;5017518;28;20070;-66
2023/06/01 10:43:08;;;;;;;10.20;5.18;;;;;;;;;;5017100;28;20037;-66
2023/06/01 10:45:38;;;;;;;11.60;5.63;;;;;;;;;;5016068;28;20045;-67
2023/06/01 10:48:06;;;;;;;11.38;5.65;;;;;;;;;;5032926;28;20405;-66
2023/06/01 10:50:34;;;;;;;7.47;4.05;;;;;;;;;;5016884;28;20037;-68
2023/06/01 10:53:19;;;;;;;15.45;5.53;;;;;;;;;;5021143;28;20068;-67
2023/06/01 10:55:46;;;;;;;9.82;6.00;;;;;;;;;;5022719;28;20050;-67
2023/06/01 10:58:30;;;;;;;11.05;6.03;;;;;;;;;;5029013;28;20133;-66
2023/06/01 11:00:59;;;;;;;15.35;8.57;;;;;;;;;;5027220;28;20040;-67
2023/06/01 11:03:49;;;;;;;13.88;7.68;;;;;;;;;;5026593;28;20120;-67
2023/06/01 11:06:45;;;;;;;16.02;9.23;;;;;;;;;;5027738;28;20151;-66
2023/06/01 11:09:15;;;;;;;13.68;8.13;;;;;;;;;;5022260;28;20309;-68
2023/06/01 11:11:51;;;;;;;15.38;8.40;;;;;;;;;;5025674;28;20052;-66
2023/06/01 11:14:23;;;;;;;13.52;7.82;;;;;;;;;;5029940;28;20045;-68
2023/06/01 11:16:50;;;;;;;13.32;7.35;;;;;;;;;;5046950;28;20050;-67
2023/06/01 11:19:24;;;;;;;12.98;7.10;;;;;;;;;;5032195;28;20048;-67
2023/06/01 11:22:00;;;;;;;13.55;7.65;;;;;;;;;;5033175;28;20109;-66
2023/06/01 11:24:33;;;;;;;14.68;7.65;;;;;;;;;;5032755;28;20050;-65
2023/06/01 11:27:04;;;;;;;12.88;8.05;;;;;;;;;;5033907;28;20037;-67
2023/06/01 11:29:31;;;;;;;12.48;6.32;;;;;;;;;;5032189;28;20044;-66
2023/06/01 11:32:03;;;;;;;12.38;6.90;;;;;;;;;;5026988;28;20035;-68
2023/06/01 11:34:44;;;;;;;13.80;7.20;;;;;;;;;;5025834;28;20073;-68
2023/06/01 11:37:14;;;;;;;13.50;6.95;;;;;;;;;;5024702;28;20030;-66
2023/06/01 11:39:41;;;;;;;17.50;7.38;;;;;;;;;;5020858;28;20067;-65
2023/06/01 11:42:08;;;;;;;11.07;6.63;;;;;;;;;;5023750;28;20190;-66
2023/06/01 11:44:36;;;;;;;14.00;7.78;;;;;;;;;;5022225;28;20333;-65
2023/06/01 11:47:04;;;;;;;12.57;7.65;;;;;;;;;;5020846;28;20053;-67
2023/06/01 11:49:30;;;;;;;14.35;6.65;;;;;;;;;;5025273;28;20072;-67
2023/06/01 11:51:57;;;;;;;14.27;7.32;;;;;;;;;;5024036;28;20041;-66
2023/06/01 11:54:26;;;;;;;13.88;7.10;;;;;;;;;;5034782;28;20128;-64
2023/06/01 11:56:53;;;;;;;11.88;6.95;;;;;;;;;;5020980;28;20033;-65
2023/06/01 11:59:20;;;;;;;14.15;7.07;;;;;;;;;;5021931;28;20030;-65
2023/06/01 12:01:47;;;;;;;13.32;7.35;;;;;;;;;;5028881;28;20041;-66
2023/06/01 12:04:14;;;;;;;17.27;7.68;;;;;;;;;;5030646;28;20046;-66
2023/06/01 12:06:41;;;;;;;14.25;7.88;;;;;;;;;;5017672;28;20037;-64
2023/06/01 12:09:08;;;;;;;12.05;7.25;;;;;;;;;;5015005;28;20044;-67
2023/06/01 12:11:36;;;;;;;11.63;7.22;;;;;;;;;;5014513;28;20050;-66
2023/06/01 12:14:05;;;;;;;13.27;7.88;;;;;;;;;;5018008;28;20056;-66
2023/06/01 12:16:50;;;;;;;13.88;8.18;;;;;;;;;;5014274;28;20072;-67
2023/06/01 12:19:17;;;;;;;11.82;7.20;;;;;;;;;;5012347;28;20049;-66
2023/06/01 12:21:50;;;;;;;14.73;7.25;;;;;;;;;;5012960;28;20030;-65
2023/06/01 12:24:28;;;;;;;15.43;7.22;;;;;;;;;;5012562;28;20115;-66
2023/06/01 12:26:55;;;;;;;11.50;6.90;;;;;;;;;;5030344;28;20041;-64
2023/06/01 12:29:41;;;;;;;12.35;7.03;;;;;;;;;;5015822;28;20037;-66
2023/06/01 12:32:08;;;;;;;13.07;6.75;;;;;;;;;;5014719;28;20037;-65
2023/06/01 12:34:36;;;;;;;12.20;7.00;;;;;;;;;;5015272;28;20041;-65
2023/06/01 12:37:15;;;;;;;12.32;6.93;;;;;;;;;;5016444;28;20033;-65
2023/06/01 12:39:42;;;;;;;10.60;6.82;;;;;;;;;;5014750;28;20041;-66
2023/06/01 12:42:10;;;;;;;9.48;6.05;;;;;;;;;;5013566;28;20153;-65
2023/06/01 12:44:37;;;;;;;15.27;7.78;;;;;;;;;;5012679;28;20078;-66
2023/06/01 12:47:04;;;;;;;12.10;7.38;;;;;;;;;;5014087;28;20119;-64
2023/06/01 12:49:30;;;;;;;15.25;7.47;;;;;;;;;;5014052;28;20038;-64
2023/06/01 12:51:57;;;;;;;17.75;7.47;;;;;;;;;;5016452;28;20038;-65
2023/06/01 12:54:24;;;;;;;16.17;7.82;;;;;;;;;;5017403;28;20040;-66
2023/06/01 12:56:51;;;;;;;14.55;7.72;;;;;;;;;;5018744;28;20037;-65
2023/06/01 12:59:17;;;;;;;11.55;7.07;;;;;;;;;;5020328;28;20044;-65
2023/06/01 13:01:44;;;;;;;15.60;7.47;;;;;;;;;;5022938;28;20048;-65
2023/06/01 13:04:11;;;;;;;11.88;6.93;;;;;;;;;;5017901;28;20049;-65
2023/06/01 13:06:39;;;;;;;14.00;6.70;;;;;;;;;;5020333;28;20141;-64
2023/06/01 13:09:06;;;;;;;13.57;8.05;;;;;;;;;;5020024;28;20073;-64
2023/06/01 13:11:33;;;;;;;13.50;7.63;;;;;;;;;;5017594;28;20045;-66
2023/06/01 13:13:59;;;;;;;14.48;7.65;;;;;;;;;;5019309;28;20046;-63
2023/06/01 13:16:27;;;;;;;13.00;7.40;;;;;;;;;;5017686;28;20149;-64
2023/06/01 13:18:54;;;;;;;15.48;8.85;;;;;;;;;;5019391;28;20045;-64
2023/06/01 13:21:20;;;;;;;13.05;8.68;;;;;;;;;;5018703;28;20061;-65
2023/06/01 13:23:48;;;;;;;16.27;8.65;;;;;;;;;;5018344;28;20095;-64
2023/06/01 13:26:14;;;;;;;14.45;9.15;;;;;;;;;;5018407;28;20457;-65
2023/06/01 13:28:41;;;;;;;12.85;8.32;;;;;;;;;;5017759;28;20069;-64
2023/06/01 13:31:07;;;;;;;10.68;6.22;;;;;;;;;;5018454;28;20037;-64
2023/06/01 13:33:34;;;;;;;17.20;9.60;;;;;;;;;;5015159;28;20041;-64
2023/06/01 13:36:01;;;;;;;14.98;9.57;;;;;;;;;;5016257;28;20054;-65
2023/06/01 13:38:27;;;;;;;19.55;9.88;;;;;;;;;;5014397;28;20037;-65
2023/06/01 13:40:54;;;;;;;15.40;8.52;;;;;;;;;;5018199;28;20042;-65
2023/06/01 13:43:21;;;;;;;15.13;9.32;;;;;;;;;;5016897;28;20053;-65
2023/06/01 13:45:47;;;;;;;17.42;9.20;;;;;;;;;;5016930;28;20053;-64
2023/06/01 13:48:14;;;;;;;16.10;9.13;;;;;;;;;;5018886;28;20045;-65
2023/06/01 13:50:41;;;;;;;15.93;8.90;;;;;;;;;;5015728;28;20141;-65
2023/06/01 13:53:09;;;;;;;16.65;9.38;;;;;;;;;;5017153;28;20581;-66
2023/06/01 13:55:37;;;;;;;14.82;9.38;;;;;;;;;;5015239;28;20041;-66
2023/06/01 13:58:03;;;;;;;16.50;9.55;;;;;;;;;;5016849;28;20102;-66
2023/06/01 14:00:30;;;;;;;19.13;9.07;;;;;;;;;;5014058;28;20490;-66
2023/06/01 14:02:56;;;;;;;13.57;9.00;;;;;;;;;;5016350;28;20049;-65
2023/06/01 14:05:23;;;;;;;14.55;8.88;;;;;;;;;;5013842;28;20058;-66
2023/06/01 14:07:50;;;;;;;16.42;9.45;;;;;;;;;;5017792;28;20037;-65
2023/06/01 14:10:17;;;;;;;20.75;8.00;;;;;;;;;;5017275;28;20029;-65
2023/06/01 14:12:45;;;;;;;17.63;10.10;;;;;;;;;;5017104;28;20041;-67
2023/06/01 14:15:11;;;;;;;13.90;8.82;;;;;;;;;;5017007;28;20135;-65
2023/06/01 14:17:38;;;;;;;13.02;7.47;;;;;;;;;;5016915;28;20454;-65
2023/06/01 14:20:05;;;;;;;15.07;9.60;;;;;;;;;;5019509;28;20049;-65
2023/06/01 14:22:32;;;;;;;11.00;5.07;;;;;;;;;;5015738;28;20040;-65
2023/06/01 14:24:58;;;;;;;15.63;9.75;;;;;;;;;;5017066;28;20045;-65
2023/06/01 14:27:25;;;;;;;14.13;9.68;;;;;;;;;;5017919;28;20029;-65
2023/06/01 14:29:51;;;;;;;19.20;10.50;;;;;;;;;;5017640;28;20045;-66
2023/06/01 14:32:18;;;;;;;17.60;9.00;;;;;;;;;;5016048;28;20034;-66
2023/06/01 14:34:45;;;;;;;16.33;9.88;;;;;;;;;;5008002;28;21088;-66
2023/06/01 14:37:13;;;;;;;18.70;10.98;;;;;;;;;;5032796;28;20529;-67
2023/06/01 14:39:40;;;;;;;16.23;10.10;;;;;;;;;;5015250;28;20057;-66
2023/06/01 14:42:08;;;;;;;19.33;11.32;;;;;;;;;;5032264;28;20755;-67